createdAt,value
2019-03-13T00:01:39.193Z,8.50
2019-03-13T00:04:27.449Z,8.50
2019-03-13T00:07:15.412Z,8.50
2019-03-13T00:10:05.610Z,8.50
2019-03-13T00:12:53.606Z,8.50
2019-03-13T00:15:41.750Z,8.50
2019-03-13T00:18:32.742Z,8.40
2019-03-13T00:21:20.601Z,8.50
2019-03-13T00:24:09.837Z,8.40
2019-03-13T00:26:57.800Z,8.40
2019-03-13T00:29:45.587Z,8.40
2019-03-13T00:32:33.287Z,8.40
2019-03-13T00:35:20.924Z,8.30
2019-03-13T00:38:09.162Z,8.20
2019-03-13T00:40:57.379Z,8.10
2019-03-13T00:43:45.108Z,8.10
2019-03-13T00:46:33.373Z,8.00
2019-03-13T00:49:21.614Z,8.00
2019-03-13T00:52:09.557Z,7.90
2019-03-13T00:54:57.866Z,7.90
2019-03-13T00:57:49.245Z,7.80
2019-03-13T01:00:53.577Z,7.80
2019-03-13T01:04:03.454Z,7.70
2019-03-13T01:07:10.580Z,7.60
2019-03-13T01:09:58.726Z,7.60
2019-03-13T01:12:46.827Z,7.70
2019-03-13T01:15:34.441Z,7.70
2019-03-13T01:18:22.151Z,7.70
2019-03-13T01:21:10.295Z,7.70
2019-03-13T01:24:00.859Z,7.70
2019-03-13T01:26:49.088Z,7.70
2019-03-13T01:29:36.481Z,7.70
2019-03-13T01:33:01.843Z,7.70
2019-03-13T01:35:54.487Z,7.70
2019-03-13T01:38:42.619Z,7.70
2019-03-13T01:41:32.503Z,7.70
2019-03-13T01:44:20.430Z,7.50
2019-03-13T01:47:08.611Z,7.50
2019-03-13T01:49:56.600Z,7.50
2019-03-13T01:52:48.823Z,7.30
2019-03-13T01:55:36.858Z,7.20
2019-03-13T01:58:27.985Z,7.10
2019-03-13T02:01:16.045Z,7.10
2019-03-13T02:04:04.139Z,7.10
2019-03-13T02:06:52.087Z,7.10
2019-03-13T02:09:43.333Z,7.20
2019-03-13T02:12:31.662Z,7.40
2019-03-13T02:15:19.929Z,7.90
2019-03-13T02:18:07.955Z,8.10
2019-03-13T02:20:56.345Z,8.40
2019-03-13T02:23:46.710Z,8.60
2019-03-13T02:26:35.009Z,8.70
2019-03-13T02:29:22.746Z,8.80
2019-03-13T02:32:10.997Z,8.80
2019-03-13T02:35:02.091Z,8.80
2019-03-13T02:37:50.343Z,8.70
2019-03-13T02:40:38.600Z,8.60
2019-03-13T02:43:26.693Z,8.50
2019-03-13T02:46:14.826Z,8.50
2019-03-13T02:49:05.340Z,8.40
2019-03-13T02:51:53.441Z,8.40
2019-03-13T02:54:41.746Z,8.30
2019-03-13T02:57:31.696Z,8.30
2019-03-13T03:00:23.138Z,8.20
2019-03-13T03:03:18.958Z,8.10
2019-03-13T03:06:06.613Z,7.90
2019-03-13T03:08:54.275Z,7.70
2019-03-13T03:11:42.188Z,7.50
2019-03-13T03:14:30.657Z,7.30
2019-03-13T03:17:18.357Z,7.20
2019-03-13T03:20:09.294Z,7.20
2019-03-13T03:22:57.329Z,7.10
2019-03-13T03:25:46.853Z,6.90
2019-03-13T03:28:34.770Z,6.90
2019-03-13T03:31:22.170Z,6.80
2019-03-13T03:34:10.334Z,6.70
2019-03-13T03:36:58.180Z,6.60
2019-03-13T03:39:46.177Z,6.50
2019-03-13T03:42:34.430Z,6.40
2019-03-13T03:45:22.439Z,6.40
2019-03-13T03:48:10.876Z,6.30
2019-03-13T03:51:01.983Z,6.20
2019-03-13T03:53:49.827Z,6.30
2019-03-13T03:56:37.776Z,6.30
2019-03-13T03:59:25.616Z,6.10
2019-03-13T04:02:13.833Z,5.70
2019-03-13T04:05:02.313Z,5.10
2019-03-13T04:07:50.802Z,4.90
2019-03-13T04:10:38.849Z,4.60
2019-03-13T04:13:26.963Z,4.50
2019-03-13T04:16:15.039Z,4.40
2019-03-13T04:19:03.953Z,4.30
2019-03-13T04:21:51.969Z,4.20
2019-03-13T04:24:39.788Z,4.20
2019-03-13T04:27:28.967Z,4.20
2019-03-13T04:30:16.791Z,4.10
2019-03-13T04:33:07.553Z,4.00
2019-03-13T04:35:56.859Z,4.00
2019-03-13T04:38:44.647Z,3.90
2019-03-13T04:41:32.569Z,3.80
2019-03-13T04:44:20.511Z,3.70
2019-03-13T04:47:08.508Z,3.60
2019-03-13T04:49:59.282Z,3.60
2019-03-13T04:52:47.362Z,3.60
2019-03-13T04:55:35.613Z,3.60
2019-03-13T04:58:23.996Z,3.50
2019-03-13T05:01:13.924Z,3.50
2019-03-13T05:04:01.839Z,3.60
2019-03-13T05:06:49.681Z,3.60
2019-03-13T05:09:39.474Z,3.50
2019-03-13T05:12:27.464Z,3.50
2019-03-13T05:15:15.432Z,3.50
2019-03-13T05:18:04.812Z,3.60
2019-03-13T05:20:53.289Z,3.60
2019-03-13T05:23:41.615Z,3.60
2019-03-13T05:26:29.936Z,3.50
2019-03-13T05:29:17.882Z,3.60
2019-03-13T05:32:05.578Z,3.60
2019-03-13T05:34:53.822Z,3.60
2019-03-13T05:37:41.910Z,3.60
2019-03-13T05:40:30.048Z,3.70
2019-03-13T05:43:18.105Z,3.70
2019-03-13T05:46:06.317Z,3.80
2019-03-13T05:48:54.438Z,3.70
2019-03-13T05:51:43.594Z,3.80
2019-03-13T05:54:31.780Z,3.80
2019-03-13T05:57:19.709Z,3.80
2019-03-13T06:00:07.963Z,3.80
2019-03-13T06:02:56.222Z,3.90
2019-03-13T06:05:44.136Z,4.00
2019-03-13T06:08:33.140Z,4.00
2019-03-13T06:11:21.231Z,4.10
2019-03-13T06:14:09.655Z,4.10
2019-03-13T06:16:57.431Z,4.20
2019-03-13T06:19:45.523Z,4.20
2019-03-13T06:22:33.305Z,4.30
2019-03-13T06:25:21.251Z,4.30
2019-03-13T06:28:09.160Z,4.30
2019-03-13T06:30:56.982Z,4.30
2019-03-13T06:33:44.786Z,4.30
2019-03-13T06:36:33.164Z,4.40
2019-03-13T06:39:20.846Z,4.30
2019-03-13T06:42:08.499Z,4.40
2019-03-13T06:44:56.517Z,4.40
2019-03-13T06:47:44.925Z,4.40
2019-03-13T06:50:32.618Z,4.40
2019-03-13T06:53:20.494Z,4.40
2019-03-13T06:56:08.527Z,4.40
2019-03-13T06:59:07.562Z,4.30
2019-03-13T07:02:02.567Z,4.40
2019-03-13T07:05:08.317Z,4.40
2019-03-13T07:08:02.855Z,4.30
2019-03-13T07:11:01.341Z,4.40
2019-03-13T07:13:55.940Z,4.40
2019-03-13T07:17:11.950Z,4.40
2019-03-13T07:20:16.715Z,4.40
2019-03-13T07:23:38.888Z,4.50
2019-03-13T07:26:57.503Z,4.40
2019-03-13T07:30:00.648Z,4.50
2019-03-13T07:33:06.265Z,4.50
2019-03-13T07:36:04.897Z,4.50
2019-03-13T07:39:01.774Z,4.50
2019-03-13T07:42:04.498Z,4.60
2019-03-13T07:45:13.931Z,4.60
2019-03-13T07:48:36.089Z,4.70
2019-03-13T07:51:40.413Z,4.70
2019-03-13T07:54:46.474Z,4.70
2019-03-13T07:57:53.381Z,4.80
2019-03-13T08:00:57.715Z,4.80
2019-03-13T08:03:51.048Z,4.80
2019-03-13T08:06:59.836Z,4.80
2019-03-13T08:10:05.362Z,4.90
2019-03-13T08:13:12.693Z,5.00
2019-03-13T08:16:22.634Z,4.90
2019-03-13T08:19:47.955Z,4.90
2019-03-13T08:23:03.089Z,4.90
2019-03-13T08:26:10.223Z,4.90
2019-03-13T08:29:13.011Z,4.90
2019-03-13T08:32:08.935Z,5.00
2019-03-13T08:35:31.397Z,5.00
2019-03-13T08:38:44.410Z,5.10
2019-03-13T08:41:51.710Z,5.00
2019-03-13T08:44:57.066Z,5.00
2019-03-13T08:48:13.117Z,5.10
2019-03-13T08:51:11.721Z,5.20
2019-03-13T08:54:17.946Z,5.20
2019-03-13T08:57:15.580Z,5.20
2019-03-13T09:00:25.493Z,5.30
2019-03-13T09:03:19.189Z,5.20
2019-03-13T09:06:26.061Z,5.20
2019-03-13T09:09:32.615Z,5.20
2019-03-13T09:12:41.189Z,5.20
2019-03-13T09:15:47.146Z,5.30
2019-03-13T09:18:49.597Z,5.20
2019-03-13T09:21:56.525Z,5.20
2019-03-13T09:25:18.688Z,5.20
2019-03-13T09:28:24.714Z,5.30
2019-03-13T09:31:38.009Z,5.40
2019-03-13T09:34:48.209Z,5.50
2019-03-13T09:37:53.443Z,5.60
2019-03-13T09:41:03.365Z,5.70
2019-03-13T09:44:13.863Z,5.70
2019-03-13T09:47:24.108Z,5.80
2019-03-13T09:50:28.438Z,5.90
2019-03-13T09:53:38.626Z,6.00
2019-03-13T09:56:33.607Z,6.10
2019-03-13T09:59:45.854Z,6.20
2019-03-13T10:02:40.720Z,6.30
2019-03-13T10:05:37.075Z,6.40
2019-03-13T10:08:36.023Z,6.30
2019-03-13T10:11:42.273Z,6.30
2019-03-13T10:14:48.080Z,6.30
2019-03-13T10:17:43.943Z,6.40
2019-03-13T10:21:00.215Z,6.60
2019-03-13T10:24:10.190Z,6.70
2019-03-13T10:27:29.470Z,6.70
2019-03-13T10:30:51.517Z,6.80
2019-03-13T10:33:46.438Z,6.90
2019-03-13T10:36:52.087Z,6.90
2019-03-13T10:40:02.092Z,7.00
2019-03-13T10:42:54.794Z,7.10
2019-03-13T10:45:52.183Z,7.20
2019-03-13T10:48:53.537Z,6.90
2019-03-13T10:51:47.814Z,6.90
2019-03-13T10:54:48.043Z,7.10
2019-03-13T10:58:02.279Z,7.30
2019-03-13T11:01:04.788Z,7.70
2019-03-13T11:03:58.213Z,7.90
2019-03-13T11:06:58.248Z,7.60
2019-03-13T11:10:04.291Z,7.20
2019-03-13T11:13:23.960Z,6.90
2019-03-13T11:16:31.967Z,7.00
2019-03-13T11:19:52.185Z,7.00
2019-03-13T11:23:07.847Z,6.90
2019-03-13T11:26:13.626Z,6.80
2019-03-13T11:29:36.170Z,6.90
2019-03-13T11:32:40.786Z,7.00
2019-03-13T11:35:50.894Z,6.20
2019-03-13T11:39:01.509Z,5.50
2019-03-13T11:42:07.293Z,5.20
2019-03-13T11:45:17.275Z,5.20
2019-03-13T11:48:19.621Z,5.30
2019-03-13T11:51:27.084Z,5.40
2019-03-13T11:54:27.831Z,5.60
2019-03-13T11:57:24.020Z,5.90
2019-03-13T12:00:38.431Z,6.00
2019-03-13T12:03:33.410Z,6.20
2019-03-13T12:06:49.330Z,6.40
2019-03-13T12:10:00.480Z,6.50
2019-03-13T12:12:56.581Z,6.50
2019-03-13T12:16:01.063Z,6.70
2019-03-13T12:18:55.636Z,6.80
2019-03-13T12:21:54.751Z,6.80
2019-03-13T12:25:01.502Z,6.80
2019-03-13T12:27:59.487Z,6.60
2019-03-13T12:31:01.767Z,6.20
2019-03-13T12:33:58.356Z,6.20
2019-03-13T12:36:55.099Z,6.40
2019-03-13T12:39:51.702Z,6.60
2019-03-13T12:42:50.085Z,6.70
2019-03-13T12:45:57.007Z,6.80
2019-03-13T12:49:04.238Z,7.10
2019-03-13T12:52:23.497Z,7.40
2019-03-13T12:55:19.682Z,7.40
2019-03-13T12:58:25.370Z,7.30
2019-03-13T13:01:41.517Z,7.20
2019-03-13T13:04:49.349Z,7.40
2019-03-13T13:08:05.421Z,7.20
2019-03-13T13:11:11.505Z,7.30
2019-03-13T13:14:18.379Z,7.40
2019-03-13T13:17:19.814Z,7.60
2019-03-13T13:20:09.419Z,7.70
2019-03-13T13:22:57.270Z,8.00
2019-03-13T13:25:45.549Z,8.30
2019-03-13T13:28:33.740Z,8.30
2019-03-13T13:31:21.711Z,8.30
2019-03-13T13:34:09.917Z,8.40
2019-03-13T13:36:57.959Z,8.30
2019-03-13T13:39:45.961Z,8.20
2019-03-13T13:42:33.960Z,8.10
2019-03-13T13:45:42.963Z,8.20
2019-03-13T13:48:31.021Z,8.30
2019-03-13T13:51:19.109Z,8.20
2019-03-13T13:54:07.074Z,8.10
2019-03-13T13:56:55.098Z,8.00
2019-03-13T13:59:43.256Z,8.10
2019-03-13T14:02:31.275Z,8.10
2019-03-13T14:05:18.706Z,8.20
2019-03-13T14:08:06.537Z,8.30
2019-03-13T14:10:54.026Z,8.30
2019-03-13T14:13:42.037Z,8.00
2019-03-13T14:16:29.972Z,7.60
2019-03-13T14:19:18.210Z,7.40
2019-03-13T14:22:06.104Z,7.20
2019-03-13T14:24:54.156Z,7.10
2019-03-13T14:27:42.453Z,7.10
2019-03-13T14:30:30.481Z,7.10
2019-03-13T14:33:18.477Z,7.10
2019-03-13T14:36:06.063Z,7.10
2019-03-13T14:38:53.930Z,6.90
2019-03-13T14:41:41.728Z,6.20
2019-03-13T14:44:29.741Z,5.50
2019-03-13T14:47:17.288Z,5.00
2019-03-13T14:50:05.588Z,4.30
2019-03-13T14:52:53.823Z,4.00
2019-03-13T14:55:42.048Z,3.90
2019-03-13T14:58:30.081Z,3.80
2019-03-13T15:01:17.914Z,3.90
2019-03-13T15:04:05.809Z,4.20
2019-03-13T15:06:53.829Z,4.50
2019-03-13T15:09:41.674Z,4.80
2019-03-13T15:12:29.958Z,5.10
2019-03-13T15:15:18.052Z,5.30
2019-03-13T15:18:06.599Z,5.50
2019-03-13T15:20:54.481Z,5.60
2019-03-13T15:23:42.306Z,5.60
2019-03-13T15:26:30.141Z,5.50
2019-03-13T15:29:17.935Z,5.50
2019-03-13T15:32:05.715Z,5.70
2019-03-13T15:34:53.887Z,5.70
2019-03-13T15:37:42.277Z,5.80
2019-03-13T15:40:29.856Z,5.80
2019-03-13T15:43:17.995Z,5.90
2019-03-13T15:46:05.790Z,6.00
2019-03-13T15:48:53.659Z,6.00
2019-03-13T15:51:41.761Z,6.10
2019-03-13T15:54:29.624Z,6.10
2019-03-13T15:57:18.575Z,6.10
2019-03-13T16:00:08.288Z,6.20
2019-03-13T16:02:56.370Z,6.30
2019-03-13T16:05:44.122Z,6.30
2019-03-13T16:08:31.882Z,6.40
2019-03-13T16:11:19.674Z,6.40
2019-03-13T16:14:07.994Z,6.40
2019-03-13T16:16:55.837Z,6.40
2019-03-13T16:19:44.047Z,6.30
2019-03-13T16:22:32.532Z,6.30
2019-03-13T16:25:20.230Z,6.10
2019-03-13T16:28:07.898Z,6.10
2019-03-13T16:30:55.999Z,6.00
2019-03-13T16:33:44.066Z,5.90
2019-03-13T16:36:32.219Z,5.90
2019-03-13T16:39:19.760Z,5.90
2019-03-13T16:42:07.489Z,5.90
2019-03-13T16:44:55.377Z,5.80
2019-03-13T16:47:45.124Z,5.70
2019-03-13T16:50:32.921Z,5.60
2019-03-13T16:53:21.229Z,5.60
2019-03-13T16:56:09.259Z,5.60
2019-03-13T16:58:57.472Z,5.70
2019-03-13T17:01:45.536Z,5.60
2019-03-13T17:04:33.244Z,5.00
2019-03-13T17:07:21.115Z,4.60
2019-03-13T17:10:10.614Z,4.00
2019-03-13T17:12:58.876Z,3.70
2019-03-13T17:15:47.225Z,3.60
2019-03-13T17:18:35.334Z,3.40
2019-03-13T17:21:23.609Z,3.40
2019-03-13T17:24:11.832Z,3.30
2019-03-13T17:26:59.586Z,3.40
2019-03-13T17:29:47.684Z,3.40
2019-03-13T17:32:35.613Z,3.40
2019-03-13T17:35:23.695Z,3.40
2019-03-13T17:38:11.585Z,3.30
2019-03-13T17:40:59.504Z,3.30
2019-03-13T17:43:47.467Z,3.20
2019-03-13T17:46:35.754Z,3.20
2019-03-13T17:49:23.829Z,3.20
2019-03-13T17:52:11.856Z,3.30
2019-03-13T17:55:00.031Z,3.30
2019-03-13T17:57:48.295Z,3.30
2019-03-13T18:00:44.326Z,3.30
2019-03-13T18:03:31.990Z,3.30
2019-03-13T18:06:20.128Z,3.20
2019-03-13T18:09:07.976Z,3.30
2019-03-13T18:11:55.771Z,3.30
2019-03-13T18:14:43.360Z,3.30
2019-03-13T18:17:31.367Z,3.30
2019-03-13T18:20:19.522Z,3.40
2019-03-13T18:23:07.465Z,3.40
2019-03-13T18:25:55.748Z,3.60
2019-03-13T18:28:43.686Z,3.80
2019-03-13T18:31:31.496Z,3.90
2019-03-13T18:34:19.295Z,4.00
2019-03-13T18:37:10.456Z,4.10
2019-03-13T18:39:58.192Z,4.10
2019-03-13T18:42:45.886Z,4.20
2019-03-13T18:45:33.974Z,4.20
2019-03-13T18:48:22.000Z,4.20
2019-03-13T18:51:10.058Z,4.10
2019-03-13T18:53:58.124Z,4.10
2019-03-13T18:56:46.403Z,4.10
2019-03-13T18:59:34.223Z,4.10
2019-03-13T19:02:22.475Z,4.00
2019-03-13T19:05:12.853Z,3.90
2019-03-13T19:08:00.727Z,3.90
2019-03-13T19:10:48.217Z,3.80
2019-03-13T19:13:35.784Z,3.80
2019-03-13T19:16:23.467Z,3.70
2019-03-13T19:19:11.220Z,3.70
2019-03-13T19:21:59.104Z,3.70
2019-03-13T19:24:47.347Z,3.70
2019-03-13T19:27:35.548Z,3.70
2019-03-13T19:30:25.336Z,3.80
2019-03-13T19:33:13.040Z,3.80
2019-03-13T19:36:01.077Z,3.90
2019-03-13T19:38:49.181Z,4.00
2019-03-13T19:41:37.112Z,4.10
2019-03-13T19:44:24.857Z,4.20
2019-03-13T19:47:12.894Z,4.30
2019-03-13T19:50:01.569Z,4.30
2019-03-13T19:52:49.721Z,4.40
2019-03-13T19:55:37.545Z,4.40
2019-03-13T19:58:24.993Z,4.40
2019-03-13T20:01:13.222Z,4.50
2019-03-13T20:04:01.161Z,4.50
2019-03-13T20:06:49.309Z,4.60
2019-03-13T20:09:37.374Z,4.60
2019-03-13T20:12:25.707Z,4.60
2019-03-13T20:15:15.795Z,4.60
2019-03-13T20:18:03.848Z,4.70
2019-03-13T20:20:51.193Z,4.70
2019-03-13T20:23:39.427Z,4.70
2019-03-13T20:26:27.630Z,4.60
2019-03-13T20:29:15.414Z,4.70
2019-03-13T20:32:03.286Z,4.60
2019-03-13T20:34:51.115Z,4.60
2019-03-13T20:37:39.551Z,4.60
2019-03-13T20:40:27.484Z,4.50
2019-03-13T20:43:15.888Z,4.50
2019-03-13T20:46:05.016Z,4.50
2019-03-13T20:48:52.868Z,4.50
2019-03-13T20:51:40.543Z,4.50
2019-03-13T20:54:28.325Z,4.50
2019-03-13T20:57:16.353Z,4.50
2019-03-13T21:00:04.768Z,4.50
2019-03-13T21:02:52.572Z,4.50
2019-03-13T21:05:40.050Z,4.50
2019-03-13T21:08:27.762Z,4.60
2019-03-13T21:11:15.377Z,4.70
2019-03-13T21:14:03.140Z,4.70
2019-03-13T21:16:50.949Z,4.80
2019-03-13T21:19:39.306Z,4.90
2019-03-13T21:22:27.540Z,5.00
2019-03-13T21:25:16.077Z,5.00
2019-03-13T21:28:04.018Z,5.00
2019-03-13T21:30:51.912Z,5.00
2019-03-13T21:33:39.924Z,5.00
2019-03-13T21:36:27.986Z,5.00
2019-03-13T21:39:15.589Z,5.00
2019-03-13T21:42:03.875Z,5.10
2019-03-13T21:44:51.885Z,5.00
2019-03-13T21:47:39.608Z,5.00
2019-03-13T21:50:28.909Z,4.70
2019-03-13T21:53:16.756Z,4.50
2019-03-13T21:56:04.665Z,4.30
2019-03-13T21:58:52.930Z,4.00
2019-03-13T22:01:40.744Z,3.80
2019-03-13T22:04:28.717Z,3.40
2019-03-13T22:07:16.810Z,3.20
2019-03-13T22:10:05.937Z,3.20
2019-03-13T22:12:54.094Z,3.20
2019-03-13T22:15:42.432Z,3.10
2019-03-13T22:18:30.499Z,3.10
2019-03-13T22:21:18.486Z,2.90
2019-03-13T22:24:06.152Z,2.80
2019-03-13T22:26:54.294Z,2.70
2019-03-13T22:29:42.212Z,2.80
2019-03-13T22:32:33.176Z,2.90
2019-03-13T22:35:21.098Z,3.00
2019-03-13T22:38:09.074Z,3.00
2019-03-13T22:40:57.012Z,2.90
2019-03-13T22:43:45.119Z,2.80
2019-03-13T22:46:33.160Z,2.70
2019-03-13T22:49:21.278Z,2.70
2019-03-13T22:52:08.916Z,2.70
2019-03-13T22:54:56.902Z,2.70
2019-03-13T22:57:44.880Z,2.70
2019-03-13T23:01:04.114Z,2.70
2019-03-13T23:03:52.285Z,2.70
2019-03-13T23:06:39.776Z,2.80
2019-03-13T23:09:27.426Z,2.90
2019-03-13T23:12:14.961Z,3.00
2019-03-13T23:15:05.373Z,3.10
2019-03-13T23:17:52.227Z,3.10
2019-03-13T23:20:40.614Z,3.20
2019-03-13T23:23:28.172Z,3.20
2019-03-13T23:26:15.538Z,3.20
2019-03-13T23:29:03.203Z,3.20
2019-03-13T23:31:50.575Z,3.20
2019-03-13T23:34:38.358Z,3.30
2019-03-13T23:37:26.201Z,3.40
2019-03-13T23:40:13.955Z,3.30
2019-03-13T23:43:01.914Z,3.20
2019-03-13T23:45:49.821Z,3.20
2019-03-13T23:48:37.697Z,3.00
2019-03-13T23:51:25.698Z,2.90
2019-03-13T23:54:13.465Z,2.90
2019-03-13T23:57:01.416Z,2.90
2019-03-13T23:59:48.891Z,2.90
